Tiempo atmosférico en la estación meteorológica de Os De Balaguer, Lleida (515 m.)



Fecha
DESCASC
Temp. máxima en grados centígrados (hora)
DESCASC
Temp. mínima en grados centígrados (hora)
DESCASC
Temp. media en grados centígrados
DESCASC
Racha de viento máxima en m/sg (hora)
DESCASC
Velocidad máxima media en intervalos de 10 minutos(hora)
DESCASC
Precipitaciones diarias en mm
DESCASC
Precipitaciones de 00:00 a 06:00 en mm
DESCASC
Precipitaciones de 06:00 a 12:00 en mm
DESCASC
Precipitaciones de 12:00 a 18:00 en mm
DESCASC
Precipitaciones de 18:00 a 24:00 en mm
DESCASC
05-04-2020 17.3 (15:20) 3.5 (02:30) 10.4 9.44 (14:20) 4.72 (06:40) 0 0 0 0 0
04-04-2020 18.1 (16:10) 4 (05:00) 11.1 7.78 (18:40) 5 (18:40) 0 0 0 0 0
03-04-2020 14.2 (16:40) 4.4 (23:40) 9.3 8.61 (17:20) 5.83 (17:20) 0 0 0 0 0
02-04-2020 12.8 (15:30) 6.5 (00:00) 9.7 4.17 (17:00) 2.78 (17:30) 2.2 1.4 0 0 0.8
01-04-2020 10.2 (13:30) 6.8 (00:00) 8.5 12.78 (13:00) 6.94 (11:30) 11.2 0.6 1.6 2 7
31-03-2020 10.9 (14:10) 2.6 (00:00) 6.7 11.39 (23:59) 7.22 (23:59) 11 1.2 1.2 3.8 4.8
30-03-2020 8 (16:20) 2.7 (00:00) 5.4 6.39 (19:10) 4.44 (07:30) 0 0 0 0 0
29-03-2020 17.1 (18:00) 2.1 (00:00) 9.6 8.61 (15:20) 5.83 (17:00) 0 0 0 0 0
28-03-2020 15.6 (16:50) 3.6 (00:00) 9.6 8.06 (16:30) 5.56 (16:10) 0 0 0 0 0
27-03-2020 12.5 (14:40) -1 (-00:0) 5.8 8.89 (13:30) 5.56 (13:00) 0 0 0 0 0
26-03-2020 11 (12:40) 0.2 (00:00) 5.6 10 (16:10) 5.83 (15:00) 4.8 0 0 4.8 0
25-03-2020 9.8 (15:10) 2.9 (00:00) 6.4 6.94 (04:10) 4.72 (04:00) 1.2 1 0.2 0 0
24-03-2020 14.5 (13:30) 5.1 (00:00) 9.8 8.61 (04:30) 5.28 (07:00) 2.8 0 0 0 2.8
23-03-2020 14.9 (15:40) 5.7 (00:00) 10.3 11.11 (12:00) 6.94 (11:50) 0 0 0 0 0
22-03-2020 16.8 (15:20) 6.7 (00:00) 11.7 8.89 (15:40) 5.28 (15:40) 0 0 0 0 0
21-03-2020 16.1 (16:00) 2.9 (00:00) 9.5 7.78 (15:10) 4.17 (15:10) 0 0 0 0 0
20-03-2020 15.8 (14:00) 2 (00:00) 8.9 7.5 (13:00) 3.61 (18:00) 0 0 0 0 0
19-03-2020 18.1 (14:50) 4.7 (00:00) 11.4 8.89 (14:40) 3.61 (07:30) 0 0 0 0 0
18-03-2020 14.9 (15:40) 6.7 (00:00) 10.8 4.17 (05:40) 2.78 (05:40) 0 0 0 0 0
17-03-2020 15.5 (17:00) 8.7 (00:00) 12.1 15.28 (01:00) 9.44 (06:10) 1.2 0 1.2 0 0
16-03-2020 11.7 (22:20) 8.7 (00:00) 10.2 16.39 (18:30) 9.44 (22:40) 22.2 8.4 11.2 2.4 0.2
15-03-2020 17.7 (14:30) 4.7 (00:00) 11.2 10.83 (21:00) 6.94 (21:00) 3.8 0 0 0 3.8
14-03-2020 15.9 (16:20) 5.7 (00:00) 10.8 5 (15:50) 3.06 (16:50) 0 0 0 0 0
13-03-2020 14.9 (00:30) 8 (06:00) 11.4 7.22 (00:20) 4.17 (00:50) 0 0 0 0 0
12-03-2020 24.5 (16:30) 8 (00:00) 16.3 5.83 (09:30) 4.17 (09:40) 0 0 0 0 0
11-03-2020 20.1 (16:00) 3.4 (00:00) 11.8 5.56 (12:30) 3.33 (21:20) 0 0 0 0 0

Gráficas

Temp. máximas Temp. mínimas Temp. medias Precipitaciones Rachas de viento máximas Velocidades máximas media en intervalos de 10 minutos

Datos horarios

Fecha y hora oficial Temperatura (ºC) Velocidad del viento (km/h) Dirección del viento Racha (km/h) Dirección de racha Precipitación (mm) Presión (hPa) Tendencia (hPa) Humedad (%)
2020-04-09 23:00:00 8.5 6 Nordeste 13 Nordeste 0 -- -- 74
2020-04-09 22:00:00 10.4 10 Este 14 Este 0 -- -- 67
2020-04-09 21:00:00 13.5 8 Este 21 Sudeste 0 -- -- 56
2020-04-09 20:00:00 16.1 9 Sudeste 23 Sudeste 0 -- -- 50
2020-04-09 19:00:00 18.7 9 Este 23 Sur 0 -- -- 42
2020-04-09 18:00:00 19.6 10 Este 25 Sudeste 0 -- -- 43
2020-04-09 17:00:00 20 11 Sur 23 Este 0 -- -- 44
2020-04-09 16:00:00 20 10 Sur 22 Este 0 -- -- 43
2020-04-09 15:00:00 19.5 9 Sudeste 23 Sudoeste 0 -- -- 43
2020-04-09 14:00:00 18.9 10 Sur 22 Este 0 -- -- 44
2020-04-09 13:00:00 17.7 9 Sudeste 22 Sudeste 0 -- -- 48
2020-04-09 12:00:00 17.2 12 Sudeste 21 Sudeste 0 -- -- 53
2020-04-09 11:00:00 16 12 Nordeste 18 Este 0 -- -- 60
2020-04-09 10:00:00 14.2 7 Este 14 Este 0 -- -- 67
2020-04-09 09:00:00 10.4 6 Nordeste 15 Nordeste 0 -- -- 83
2020-04-09 08:00:00 6.5 12 Nordeste 17 Nordeste 0 -- -- 92
2020-04-09 07:00:00 6.8 13 Nordeste 16 Nordeste 0 -- -- 92
2020-04-09 06:00:00 6.6 12 Nordeste 18 Nordeste 0 -- -- 89
2020-04-09 05:00:00 7 10 Nordeste 16 Este 0 -- -- 89
2020-04-09 04:00:00 6.5 9 Nordeste 14 Nordeste 0 -- -- 86
2020-04-09 03:00:00 6.5 10 Nordeste 14 Nordeste 0 -- -- 83
2020-04-09 02:00:00 7.4 11 Nordeste 14 Este 0 -- -- 81
2020-04-09 01:00:00 7.8 9 Nordeste 13 Nordeste 0 -- -- 80
2020-04-09 00:00:00 9 7 Nordeste 14 Nordeste 0 -- -- 75
2020-04-08 23:00:00 10.5 6 Nordeste 14 Este 0 -- -- 70
2020-04-08 22:00:00 11.7 8 Este 13 Nordeste 0 -- -- 69
2020-04-08 21:00:00 13.4 5 Este 13 Este 0 -- -- 61
2020-04-08 20:00:00 15.2 4 Sur 20 Este 0 -- -- 58
2020-04-08 19:00:00 17.8 9 Sudeste 21 Este 0 -- -- 48
2020-04-08 18:00:00 18.7 6 Sudeste 24 Sudoeste 0 -- -- 49
2020-04-08 17:00:00 18.5 13 Sudoeste 24 Sudoeste 0 -- -- 50
2020-04-08 16:00:00 17.1 13 Sudoeste 26 Sudoeste 0 -- -- 48
2020-04-08 15:00:00 17.4 9 Este 20 Sudeste 0 -- -- 47
2020-04-08 14:00:00 16.4 10 Sur 19 Este 0 -- -- 50
2020-04-08 13:00:00 16.8 6 Sudeste 19 Sudeste 0 -- -- 55
2020-04-08 12:00:00 16.1 9 Este 22 Este 0 -- -- 55
2020-04-08 11:00:00 14.9 8 Sudeste 16 Sur 0 -- -- 66
2020-04-08 10:00:00 12.7 9 Este 19 Este 0 -- -- 80
2020-04-08 09:00:00 8.7 12 Nordeste 20 Nordeste 0 -- -- 91
2020-04-08 08:00:00 5.7 12 Nordeste 18 Nordeste 0 -- -- 97
2020-04-08 07:00:00 5 10 Nordeste 15 Este 0 -- -- 97
2020-04-08 06:00:00 6.3 9 Nordeste 15 Nordeste 0 -- -- 94
2020-04-08 05:00:00 5.9 11 Nordeste 15 Nordeste 0 -- -- 94
2020-04-08 04:00:00 5.7 12 Nordeste 14 Nordeste 0 -- -- 98
2020-04-08 03:00:00 5.6 9 Nordeste 13 Este 0 -- -- 97
2020-04-08 02:00:00 5.5 5 Nordeste 10 Este 0 -- -- 94
2020-04-08 01:00:00 6.3 5 Nordeste 14 Nordeste 0 -- -- 91
2020-04-08 00:00:00 7.6 9 Nordeste 12 Este 0 -- -- 91
2020-04-07 23:00:00 7.7 8 Nordeste 12 Este 0 -- -- 89
2020-04-07 22:00:00 9 6 Nordeste 12 Nordeste 0 -- -- 85
2020-04-07 21:00:00 10.5 6 Nordeste 13 Nordeste 0 -- -- 81
2020-04-07 20:00:00 12.4 6 Nordeste 12 Nordeste 0 -- -- 78
2020-04-07 19:00:00 13.5 8 Nordeste 18 Este 0 -- -- 72
2020-04-07 18:00:00 14.8 10 Este 20 Este 0 -- -- 70
2020-04-07 17:00:00 13.2 9 Este 26 Nordeste 0 -- -- 77
2020-04-07 16:00:00 13.2 14 Este 26 Nordeste 0 -- -- 83
2020-04-07 15:00:00 12.5 14 Este 26 Nordeste 0 -- -- 87
2020-04-07 14:00:00 11.8 14 Este 25 Nordeste 0 -- -- 88
2020-04-07 13:00:00 12 10 Nordeste 17 Este 0 -- -- 90
2020-04-07 12:00:00 10.6 9 Nordeste 21 Nordeste 0.4 -- -- 94
2020-04-07 11:00:00 9.8 5 Norte 14 Nordeste 0.4 -- -- 92
2020-04-07 10:00:00 9.3 4 Nordeste 14 Nordeste 0.6 -- -- 91
2020-04-07 09:00:00 8.6 5 Nordeste 11 Este 0.6 -- -- 93
2020-04-07 08:00:00 8.2 7 Nordeste 11 Este 0 -- -- 85
2020-04-07 07:00:00 8.4 6 Nordeste 10 Nordeste 0 -- -- 79
2020-04-07 06:00:00 8.9 8 Nordeste 10 Nordeste 0 -- -- 75
2020-04-07 05:00:00 8.8 5 Nordeste 12 Nordeste 0 -- -- 76
2020-04-07 04:00:00 8.5 6 Nordeste 12 Este 0 -- -- 77
2020-04-07 03:00:00 9.6 4 Nordeste 18 Nordeste 0 -- -- 73
2020-04-07 02:00:00 10.1 6 Este 15 Este 0 -- -- 68
2020-04-07 01:00:00 10.3 9 Este 18 Este 0 -- -- 64
2020-04-07 00:00:00 10.5 12 Este 22 Este 0 -- -- 62
2020-04-06 23:00:00 11 14 Este 23 Este 0 -- -- 61
2020-04-06 22:00:00 11.3 12 Este 20 Este 0 -- -- 64
2020-04-06 21:00:00 11.8 5 Sudeste 14 Este 0 -- -- 69
2020-04-06 20:00:00 13.6 10 Nordeste 21 Nordeste 0 -- -- 66
2020-04-06 19:00:00 15.3 7 Este 27 Sur 0 -- -- 60
2020-04-06 18:00:00 16.1 5 Este 20 Este 0 -- -- 58
2020-04-06 17:00:00 16.5 9 Este 29 Este 0 -- -- 60
2020-04-06 16:00:00 17.7 12 Sudeste 26 Sudeste 0 -- -- 54
2020-04-06 15:00:00 16.7 12 Sudeste 27 Sur 0 -- -- 51
2020-04-06 14:00:00 16.6 11 Sudeste 27 Nordeste 0 -- -- 54
2020-04-06 13:00:00 16 10 Nordeste 31 Nordeste 0 -- -- 52
2020-04-06 12:00:00 14.2 10 Sudeste 23 Sudeste 0 -- -- 53
2020-04-06 11:00:00 12.9 10 Sudeste 22 Este 0 -- -- 60
2020-04-06 10:00:00 10.9 11 Este 23 Este 0 -- -- 57
2020-04-06 09:00:00 9.5 7 Nordeste 20 Este 0 -- -- 67
2020-04-06 08:00:00 7.7 10 Este 16 Nordeste 0 -- -- 70
2020-04-06 07:00:00 7.4 10 Nordeste 22 Nordeste 0 -- -- 64
2020-04-06 06:00:00 6.6 7 Nordeste 15 Nordeste 0 -- -- 69
2020-04-06 05:00:00 8.6 13 Nordeste 23 Este 0 -- -- 59
2020-04-06 04:00:00 7.1 4 Nordeste 12 Nordeste 0 -- -- 65
2020-04-06 03:00:00 7.4 8 Nordeste 15 Nordeste 0 -- -- 70
2020-04-06 02:00:00 5.2 8 Nordeste 12 Este 0 -- -- 82
2020-04-06 01:00:00 6 9 Este 13 Nordeste 0 -- -- 79
2020-04-06 00:00:00 6.8 8 Nordeste 11 Nordeste 0 -- -- 81
2020-04-05 23:00:00 8.3 5 Nordeste 12 Este 0 -- -- 79
2020-04-05 22:00:00 10.2 10 Este 19 Este 0 -- -- 67
2020-04-05 21:00:00 11.3 6 Este 17 Sudeste 0 -- -- 65
2020-04-05 20:00:00 13 5 Este 18 Este 0 -- -- 59
2020-04-05 19:00:00 14.5 6 Sudeste 20 Sur 0 -- -- 55
2020-04-05 18:00:00 16.9 5 Sudeste 18 Sudoeste 0 -- -- 48
2020-04-05 17:00:00 16.6 6 Sur 24 Sur 0 -- -- 47
2020-04-05 16:00:00 17.3 10 Sudeste 26 Este 0 -- -- 40
2020-04-05 15:00:00 16.9 12 Este 34 Este 0 -- -- 47
2020-04-05 14:00:00 15.9 11 Sudeste 24 Sur 0 -- -- 52
2020-04-05 13:00:00 15.4 10 Sudeste 23 Este 0 -- -- 53
2020-04-05 12:00:00 14.1 13 Sudeste 22 Sudeste 0 -- -- 55
2020-04-05 11:00:00 14 8 Sudeste 18 Este 0 -- -- 58
2020-04-05 10:00:00 10.5 9 Este 18 Este 0 -- -- 75
2020-04-05 09:00:00 6.4 14 Nordeste 20 Nordeste 0 -- -- 84
2020-04-05 08:00:00 4.5 13 Nordeste 18 Nordeste 0 -- -- 85
2020-04-05 07:00:00 4.2 16 Nordeste 21 Nordeste 0 -- -- 86
2020-04-05 06:00:00 4.3 15 Nordeste 21 Nordeste 0 -- -- 86
2020-04-05 05:00:00 4.8 10 Nordeste 15 Nordeste 0 -- -- 85
2020-04-05 04:00:00 4.1 9 Nordeste 15 Nordeste 0 -- -- 87
2020-04-05 03:00:00 3.6 9 Nordeste 12 Este 0 -- -- 92
2020-04-05 02:00:00 4 7 Nordeste 13 Nordeste 0 -- -- 90
2020-04-05 01:00:00 3.9 7 Nordeste 12 Este 0 -- -- 89
2020-04-05 00:00:00 4.6 7 Nordeste 12 Este 0 -- -- 88
2020-04-04 23:00:00 5.3 10 Nordeste 13 Nordeste 0 -- -- 86
2020-04-04 22:00:00 7.7 8 Este 16 Sur 0 -- -- 76
2020-04-04 21:00:00 11.7 7 Sudeste 17 Sudeste 0 -- -- 59
2020-04-04 20:00:00 13.6 8 Sudeste 22 Sudoeste 0 -- -- 60
2020-04-04 19:00:00 15.9 12 Sur 28 Sur 0 -- -- 52
2020-04-04 18:00:00 17.5 10 Sudeste 28 Sur 0 -- -- 50
2020-04-04 17:00:00 17.7 10 Sur 27 Sur 0 -- -- 47
2020-04-04 16:00:00 17.6 13 Sur 26 Sudoeste 0 -- -- 44
2020-04-04 15:00:00 17.4 12 Sudoeste 24 Sudoeste 0 -- -- 53
2020-04-04 14:00:00 16.7 14 Sudoeste 23 Sudoeste 0 -- -- 53
2020-04-04 13:00:00 16.4 10 Sudoeste 20 Sur 0 -- -- 59
2020-04-04 12:00:00 15.5 10 Este 17 Este 0 -- -- 58
2020-04-04 11:00:00 13.5 5 Nordeste 17 Nordeste 0 -- -- 73
2020-04-04 10:00:00 10.6 12 Este 17 Nordeste 0 -- -- 82
2020-04-04 09:00:00 7 11 Nordeste 18 Nordeste 0 -- -- 93
2020-04-04 08:00:00 4.7 14 Nordeste 20 Nordeste 0 -- -- 96
2020-04-04 07:00:00 4.6 10 Nordeste 16 Nordeste 0 -- -- 97
2020-04-04 06:00:00 4.6 11 Nordeste 17 Nordeste 0 -- -- 97
2020-04-04 05:00:00 4 12 Nordeste 14 Este 0 -- -- 96
2020-04-04 04:00:00 5.5 10 Nordeste 14 Nordeste 0 -- -- 95
2020-04-04 03:00:00 5 9 Nordeste 14 Nordeste 0 -- -- 94
2020-04-04 02:00:00 4.8 5 Norte 12 Este 0 -- -- 97
2020-04-04 01:00:00 4.6 8 Nordeste 12 Este 0 -- -- 96
2020-04-04 00:00:00 4.5 6 Nordeste 10 Este 0 -- -- 97
2020-04-03 23:00:00 5 5 Nordeste 10 Nordeste 0 -- -- 95
2020-04-03 22:00:00 6 5 Nordeste 8 Este 0 -- -- 93
2020-04-03 21:00:00 8.2 5 Nordeste 10 Sudoeste 0 -- -- 87
2020-04-03 20:00:00 11.9 5 Sudoeste 18 Sudoeste 0 -- -- 76
2020-04-03 19:00:00 13.5 12 Sudoeste 26 Sudoeste 0 -- -- 68
2020-04-03 18:00:00 14.1 15 Sudoeste 31 Sudoeste 0 -- -- 67
2020-04-03 17:00:00 14 18 Sudoeste 30 Sur 0 -- -- 70
2020-04-03 16:00:00 13.7 13 Sudoeste 30 Sudoeste 0 -- -- 73
2020-04-03 15:00:00 11.8 16 Sudoeste 27 Sudoeste 0 -- -- 81
2020-04-03 14:00:00 10.6 15 Sudoeste 23 Sudoeste 0 -- -- 85
2020-04-03 13:00:00 8.6 14 Sudoeste 21 Sur 0 -- -- 92
2020-04-03 12:00:00 7.2 10 Sudoeste 16 Sudoeste 0 -- -- 94
2020-04-03 11:00:00 6.8 10 Sudoeste 16 Sudoeste 0 -- -- 97
2020-04-03 10:00:00 5.9 8 Sudoeste 13 Sudoeste 0 -- -- 100
2020-04-03 09:00:00 5.6 5 Sudoeste 10 Sudoeste 0 -- -- 100
2020-04-03 08:00:00 5.6 7 Sudoeste 14 Sudoeste 0 -- -- 99
2020-04-03 07:00:00 7.2 8 Sur 12 Sudoeste 0 -- -- 99
2020-04-03 06:00:00 7.6 0 Calma 4 Sur 0 -- -- 100
2020-04-03 05:00:00 7.6 2 Sudoeste 5 Sudoeste 0 -- -- 100
2020-04-03 04:00:00 7.1 0 Calma 4 Nordeste 0 -- -- 99
2020-04-03 03:00:00 7.3 2 Nordeste 8 Este 0 -- -- 99
2020-04-03 02:00:00 6.6 6 Este 8 Este 0 -- -- 99
2020-04-03 01:00:00 7.2 4 Nordeste 6 Nordeste 0 -- -- 98
2020-04-03 00:00:00 7.9 5 Norte 6 Norte 0 -- -- 98
2020-04-02 23:00:00 8.5 3 Nordeste 9 Este 0 -- -- 98
2020-04-02 22:00:00 9.1 2 Este 6 Norte 0.4 -- -- 97
2020-04-02 21:00:00 9.5 5 Nordeste 6 Este 0.4 -- -- 96
2020-04-02 20:00:00 10.3 0 Calma 5 Oeste 0 -- -- 92
2020-04-02 19:00:00 10.6 4 Sudoeste 10 Sudoeste 0 -- -- 91
2020-04-02 18:00:00 11.3 6 Sudoeste 14 Sudoeste 0 -- -- 85
2020-04-02 17:00:00 12.4 9 Sudoeste 15 Sudoeste 0 -- -- 79
2020-04-02 16:00:00 12.1 6 Norte 12 Norte 0 -- -- 75
2020-04-02 15:00:00 11.9 5 Oeste 12 Norte 0 -- -- 79
2020-04-02 14:00:00 11.3 5 Norte 13 Oeste 0 -- -- 78
2020-04-02 13:00:00 11.4 6 Sudoeste 13 Sudoeste 0 -- -- 83
2020-04-02 12:00:00 10.4 8 Sudoeste 13 Sudoeste 0 -- -- 87
2020-04-02 11:00:00 9.8 4 Sur 7 Sudoeste 0 -- -- 89
2020-04-02 10:00:00 8.6 2 Sudoeste 6 Oeste 0 -- -- 97
2020-04-02 09:00:00 7.4 4 Nordeste 12 Nordeste 0 -- -- 98
2020-04-02 08:00:00 6.6 10 Este 12 Nordeste 0 -- -- 99
2020-04-02 07:00:00 6.7 6 Nordeste 9 Nordeste 0 -- -- 99
2020-04-02 06:00:00 6.6 4 Nordeste 6 Este 0 -- -- 99
2020-04-02 05:00:00 6.5 0 Calma 5 Este 0 -- -- 99
2020-04-02 04:00:00 6.5 3 Este 5 Norte 0 -- -- 99
2020-04-02 03:00:00 6.6 2 Nordeste 9 Nordeste 0 -- -- 99
2020-04-02 02:00:00 6.5 5 Nordeste 6 Norte 0.2 -- -- 99
2020-04-02 01:00:00 6.6 2 Este 7 Norte 1.2 -- -- 98
2020-04-02 00:00:00 6.8 3 Nordeste 12 Nordeste 0.2 -- -- 96
2020-04-01 23:00:00 7.2 4 Sudeste 22 Nordeste 0 -- -- 95
2020-04-01 22:00:00 7.2 14 Nordeste 25 Nordeste 1.8 -- -- 97
2020-04-01 21:00:00 7.3 4 Nordeste 11 Nordeste 2 -- -- 98
2020-04-01 20:00:00 7.7 0 Calma 6 Sur 1.6 -- -- 98
2020-04-01 19:00:00 8.3 5 Sudoeste 10 Sudeste 1.4 -- -- 95
2020-04-01 18:00:00 9 5 Sudoeste 21 Este 0.8 -- -- 87
2020-04-01 17:00:00 10.2 12 Nordeste 29 Nordeste 0 -- -- 75
2020-04-01 16:00:00 9.9 12 Nordeste 33 Este 0 -- -- 77
2020-04-01 15:00:00 9.3 17 Este 37 Nordeste 1.2 -- -- 84
2020-04-01 14:00:00 10.1 18 Este 45 Nordeste 0 -- -- 75
2020-04-01 13:00:00 10 22 Nordeste 46 Este 0 -- -- 73
2020-04-01 12:00:00 9.5 19 Nordeste 41 Este 0 -- -- 81
2020-04-01 11:00:00 9.7 23 Este 42 Nordeste 0 -- -- 79
2020-04-01 10:00:00 9.4 16 Nordeste 36 Este 0 -- -- 81
2020-04-01 09:00:00 9.2 20 Nordeste 38 Este 0 -- -- 81
2020-04-01 08:00:00 8.6 21 Nordeste 41 Este 1.6 -- -- 88
2020-04-01 07:00:00 8.9 19 Nordeste 37 Este 0 -- -- 86
2020-04-01 06:00:00 8.9 21 Este 37 Este 0 -- -- 86
2020-04-01 05:00:00 8.3 11 Nordeste 32 Este 0.6 -- -- 90
2020-04-01 04:00:00 8.9 14 Nordeste 31 Este 0 -- -- 82
2020-04-01 03:00:00 9.2 15 Este 36 Este 0 -- -- 75
2020-04-01 02:00:00 9.1 19 Este 36 Este 0 -- -- 74
2020-04-01 01:00:00 9 17 Nordeste 41 Este 0 -- -- 75
2020-04-01 00:00:00 8.9 26 Este 41 Este 0 -- -- 78
2020-03-31 23:00:00 8.5 20 Este 35 Este 0 -- -- 82
2020-03-31 22:00:00 7.8 12 Nordeste 19 Este 0.6 -- -- 90
2020-03-31 21:00:00 7.8 12 Nordeste 32 Este 0.6 -- -- 91
2020-03-31 20:00:00 8.1 12 Este 25 Este 1.6 -- -- 93
2020-03-31 19:00:00 8.4 14 Nordeste 30 Nordeste 2 -- -- 91
2020-03-31 18:00:00 8.7 14 Nordeste 33 Este 1.4 -- -- 90
2020-03-31 17:00:00 9.1 14 Nordeste 31 Este 1 -- -- 88
2020-03-31 16:00:00 9.5 12 Nordeste 23 Nordeste 1.2 -- -- 90
2020-03-31 15:00:00 10 12 Nordeste 20 Nordeste 0.2 -- -- 88
2020-03-31 14:00:00 10.7 12 Este 26 Nordeste 0 -- -- 80
2020-03-31 13:00:00 9.9 15 Este 27 Este 0 -- -- 83
2020-03-31 12:00:00 9.2 17 Este 35 Nordeste 0 -- -- 85
2020-03-31 11:00:00 8.6 20 Este 33 Este 0 -- -- 87
2020-03-31 10:00:00 7.7 17 Este 31 Este 0 -- -- 91
2020-03-31 09:00:00 6.6 13 Nordeste 26 Este 0.2 -- -- 95
2020-03-31 08:00:00 5.2 5 Nordeste 17 Este 1 -- -- 98
2020-03-31 07:00:00 3.9 8 Nordeste 15 Nordeste 0 -- -- 98
2020-03-31 06:00:00 2.7 6 Nordeste 9 Nordeste 0.6 -- -- 97
2020-03-31 05:00:00 2.7 3 Oeste 10 Sur 0.6 -- -- 95
2020-03-31 04:00:00 3.4 0 Calma 7 Nordeste 0 -- -- 92
2020-03-31 03:00:00 3.3 5 Nordeste 10 Este 0 -- -- 91
2020-03-31 02:00:00 3.3 5 Nordeste 9 Nordeste 0 -- -- 91
2020-03-31 01:00:00 3.3 3 Nordeste 8 Norte 0 -- -- 86
2020-03-31 00:00:00 3.1 3 Norte 5 Norte 0 -- -- 84
2020-03-30 23:00:00 3.1 0 Calma 3 Este 0 -- -- 88
2020-03-30 22:00:00 3 2 Este 12 Nordeste 0 -- -- 87
2020-03-30 21:00:00 2.9 2 Sur 10 Sudoeste 0 -- -- 87
2020-03-30 20:00:00 3.3 8 Sur 23 Sudeste 0 -- -- 83
2020-03-30 19:00:00 4.5 15 Sudeste 22 Sudeste 0 -- -- 74
2020-03-30 18:00:00 6.7 10 Sudoeste 21 Sudoeste 0 -- -- 62
2020-03-30 17:00:00 7.2 12 Sudoeste 22 Sur 0 -- -- 63
2020-03-30 16:00:00 7.4 8 Sudoeste 20 Sudoeste 0 -- -- 65
2020-03-30 15:00:00 6.4 8 Sur 18 Sudoeste 0 -- -- 68
2020-03-30 14:00:00 5.4 8 Sur 14 Sudoeste 0 -- -- 73
2020-03-30 13:00:00 4.2 5 Sudoeste 12 Sur 0 -- -- 78
2020-03-30 12:00:00 4.1 7 Sudoeste 14 Sudoeste 0 -- -- 77
2020-03-30 11:00:00 2.9 12 Sudoeste 22 Sudoeste 0 -- -- 82
2020-03-30 10:00:00 2.9 10 Sudoeste 16 Sudoeste 0 -- -- 84
2020-03-30 09:00:00 3 3 Sudoeste 15 Sudoeste 0 -- -- 86
2020-03-30 08:00:00 3.3 10 Sudoeste 22 Sur 0 -- -- 87
2020-03-30 07:00:00 4.2 13 Sudoeste 19 Sudoeste 0 -- -- 86
2020-03-30 06:00:00 5.3 12 Sur 18 Sudoeste 0 -- -- 90
2020-03-30 05:00:00 5.8 7 Sur 13 Sur 0 -- -- 89
2020-03-30 04:00:00 5.6 6 Sudeste 11 Sudeste 0 -- -- 90
2020-03-30 03:00:00 5.2 4 Sudeste 11 Este 0 -- -- 90
2020-03-30 02:00:00 5.6 7 Sudeste 10 Sudeste 0 -- -- 87
2020-03-30 01:00:00 5.8 4 Sur 7 Sudoeste 0 -- -- 87
2020-03-30 00:00:00 7.6 3 Nordeste 17 Este 0 -- -- 81
2020-03-29 23:00:00 10.2 7 Nordeste 21 Este 0 -- -- 72
2020-03-29 22:00:00 8.2 7 Nordeste 17 Este 0 -- -- 76
2020-03-29 21:00:00 10.8 2 Noroeste 7 Sur 0 -- -- 70
2020-03-29 20:00:00 14.4 5 Sudoeste 17 Sudoeste 0 -- -- 56
2020-03-29 19:00:00 16.4 12 Sudoeste 24 Sudoeste 0 -- -- 50
2020-03-29 18:00:00 17.1 12 Sudoeste 29 Sur 0 -- -- 51
2020-03-29 17:00:00 16.4 21 Sudoeste 30 Sudoeste 0 -- -- 50
2020-03-29 16:00:00 16.2 18 Sudoeste 31 Sur 0 -- -- 56
2020-03-29 15:00:00 15.4 18 Sudoeste 30 Sudoeste 0 -- -- 59
2020-03-29 14:00:00 14 17 Sudoeste 26 Sudoeste 0 -- -- 67
2020-03-29 13:00:00 13.3 13 Sudoeste 19 Sudoeste 0 -- -- 69
2020-03-29 12:00:00 12 12 Sudoeste 19 Sudoeste 0 -- -- 74
2020-03-29 11:00:00 11.1 9 Sudoeste 15 Sudoeste 0 -- -- 75
2020-03-29 10:00:00 9.2 4 Sur 7 Sudoeste 0 -- -- 79
2020-03-29 09:00:00 5.3 2 Este 8 Este 0 -- -- 91
2020-03-29 08:00:00 2.6 6 Nordeste 10 Este 0 -- -- 92
2020-03-29 07:00:00 2.7 4 Nordeste 10 Nordeste 0 -- -- 90
2020-03-29 06:00:00 4.1 7 Nordeste 14 Nordeste 0 -- -- 88
2020-03-29 05:00:00 5.7 10 Nordeste 15 Este 0 -- -- 82
2020-03-29 03:00:00 5.6 6 Nordeste 10 Este 0 -- -- 85
2020-03-29 01:00:00 5 7 Nordeste 9 Este 0 -- -- 86
2020-03-29 00:00:00 5.9 5 Nordeste 9 Este 0 -- -- 82
2020-03-28 23:00:00 8.2 5 Nordeste 8 Norte 0 -- -- 77
2020-03-28 22:00:00 11.2 5 Norte 12 Noroeste 0 -- -- 66
2020-03-28 21:00:00 12 5 Noroeste 11 Oeste 0 -- -- 60
2020-03-28 20:00:00 11.9 4 Oeste 14 Oeste 0 -- -- 61
2020-03-28 19:00:00 12.8 7 Sudoeste 22 Oeste 0 -- -- 58
2020-03-28 18:00:00 14.8 13 Sudoeste 26 Sudoeste 0 -- -- 54
2020-03-28 17:00:00 15.4 18 Sudoeste 29 Sudoeste 0 -- -- 51
2020-03-28 16:00:00 15.4 17 Sudoeste 28 Sur 0 -- -- 52
2020-03-28 15:00:00 15.3 14 Sudoeste 26 Sudoeste 0 -- -- 54
2020-03-28 14:00:00 14.3 13 Sudoeste 23 Sudoeste 0 -- -- 56
2020-03-28 13:00:00 14 13 Sudoeste 21 Sudoeste 0 -- -- 64
2020-03-28 12:00:00 13.3 10 Sur 18 Sudoeste 0 -- -- 69
2020-03-28 11:00:00 11.9 12 Sudoeste 21 Sudoeste 0 -- -- 71
2020-03-28 10:00:00 10.9 8 Sudoeste 13 Sudoeste 0 -- -- 71
2020-03-28 09:00:00 7.8 3 Este 8 Nordeste 0 -- -- 78
2020-03-28 08:00:00 5.8 2 Nordeste 11 Este 0 -- -- 85
2020-03-28 07:00:00 4.9 8 Nordeste 10 Nordeste 0 -- -- 88
2020-03-28 06:00:00 4.2 7 Nordeste 12 Nordeste 0 -- -- 90
2020-03-28 05:00:00 3.6 4 Nordeste 9 Nordeste 0 -- -- 90
2020-03-28 04:00:00 4.4 5 Nordeste 10 Nordeste 0 -- -- 88
2020-03-28 03:00:00 5.7 6 Este 10 Nordeste 0 -- -- 86
2020-03-28 02:00:00 6 9 Nordeste 12 Este 0 -- -- 84
2020-03-28 01:00:00 5.9 7 Nordeste 9 Nordeste 0 -- -- 85
2020-03-28 00:00:00 5.6 6 Nordeste 10 Nordeste 0 -- -- 85
2020-03-27 23:00:00 5.9 6 Nordeste 20 Este 0 -- -- 81
2020-03-27 22:00:00 7.2 11 Este 19 Nordeste 0 -- -- 77
2020-03-27 21:00:00 7.4 5 Nordeste 9 Este 0 -- -- 75
2020-03-27 20:00:00 7.3 4 Norte 6 Norte 0 -- -- 75
2020-03-27 19:00:00 9 0 Calma 16 Oeste 0 -- -- 65
2020-03-27 18:00:00 10.4 10 Sudoeste 24 Sur 0 -- -- 58
2020-03-27 17:00:00 10.9 13 Sudoeste 27 Sur 0 -- -- 57
2020-03-27 16:00:00 10.8 16 Sudoeste 29 Sudoeste 0 -- -- 61
2020-03-27 15:00:00 12.2 16 Sudoeste 30 Sudoeste 0 -- -- 58
2020-03-27 14:00:00 11.7 20 Sudoeste 32 Sudoeste 0 -- -- 62
2020-03-27 13:00:00 11 20 Sudoeste 28 Sudoeste 0 -- -- 66
2020-03-27 12:00:00 9.6 15 Sur 22 Sur 0 -- -- 77
2020-03-27 11:00:00 8.2 13 Sudoeste 18 Sudoeste 0 -- -- 78
2020-03-27 10:00:00 7.7 10 Sudoeste 16 Sur 0 -- -- 74
2020-03-27 09:00:00 5.2 6 Este 12 Este 0 -- -- 83
2020-03-27 08:00:00 1 9 Este 13 Nordeste 0 -- -- 92
2020-03-27 07:00:00 0.1 11 Nordeste 17 Nordeste 0 -- -- 92
2020-03-27 06:00:00 -0.3 10 Nordeste 17 Norte 0 -- -- 93
2020-03-27 05:00:00 0.1 12 Nordeste 16 Nordeste 0 -- -- 93
2020-03-27 04:00:00 -0.8 7 Nordeste 15 Nordeste 0 -- -- 93
2020-03-27 03:00:00 -0.5 11 Nordeste 14 Nordeste 0 -- -- 93
2020-03-27 02:00:00 0.8 11 Nordeste 15 Nordeste 0 -- -- 91
2020-03-27 01:00:00 0.2 12 Nordeste 15 Nordeste 0 -- -- 92
2020-03-27 00:00:00 0.3 12 Nordeste 15 Este 0 -- -- 95
2020-03-26 23:00:00 0.5 10 Nordeste 13 Nordeste 0 -- -- 96
2020-03-26 22:00:00 0.9 9 Nordeste 12 Nordeste 0 -- -- 95
2020-03-26 21:00:00 2.2 0 Calma 13 Sudoeste 0 -- -- 92
2020-03-26 20:00:00 3.6 6 Este 22 Este 0 -- -- 84
2020-03-26 19:00:00 5.3 10 Nordeste 27 Este 0 -- -- 78
2020-03-26 18:00:00 6.5 12 Nordeste 32 Nordeste 0 -- -- 79
2020-03-26 17:00:00 5.9 12 Este 36 Nordeste 0.2 -- -- 80
2020-03-26 16:00:00 3.4 19 Este 36 Este 1.2 -- -- 90
2020-03-26 15:00:00 3.5 21 Este 35 Este 1.4 -- -- 87
2020-03-26 14:00:00 3.9 13 Norte 31 Norte 2 -- -- 83
2020-03-26 13:00:00 9.6 15 Sudoeste 27 Sudoeste 0 -- -- 69
2020-03-26 12:00:00 10.1 13 Sudeste 30 Este 0 -- -- 71
2020-03-26 11:00:00 8.9 10 Sudeste 24 Sudeste 0 -- -- 74
2020-03-26 10:00:00 8.7 10 Sur 16 Sur 0 -- -- 71
2020-03-26 09:00:00 7.9 5 Este 10 Este 0 -- -- 76
2020-03-26 08:00:00 3.2 4 Nordeste 10 Oeste 0 -- -- 92
2020-03-26 07:00:00 1.5 3 Sudoeste 10 Este 0 -- -- 96
2020-03-26 06:00:00 1.9 4 Norte 8 Este 0 -- -- 93
2020-03-26 05:00:00 3.4 4 Nordeste 7 Nordeste 0 -- -- 90
2020-03-26 04:00:00 4.8 0 Calma 6 Sudoeste 0 -- -- 90
2020-03-26 03:00:00 4.9 4 Sudoeste 8 Sudoeste 0 -- -- 88
2020-03-26 02:00:00 4.9 0 Calma 4 Sudoeste 0 -- -- 91
2020-03-26 01:00:00 5 0 Calma 5 Sudoeste 0 -- -- 86
2020-03-26 00:00:00 5.2 2 Nordeste 10 Oeste 0 -- -- 85
2020-03-25 23:00:00 5.1 2 Nordeste 9 Nordeste 0 -- -- 86
2020-03-25 22:00:00 5.2 6 Nordeste 8 Nordeste 0 -- -- 86
2020-03-25 21:00:00 5.2 0 Calma 4 Este 0 -- -- 83
2020-03-25 20:00:00 5.5 0 Calma 8 Sudoeste 0 -- -- 80
2020-03-25 19:00:00 5.9 6 Sudoeste 13 Sudoeste 0 -- -- 76
2020-03-25 18:00:00 6.4 10 Sudoeste 16 Sudoeste 0 -- -- 69
2020-03-25 17:00:00 7.7 9 Sudoeste 14 Sudoeste 0 -- -- 70
2020-03-25 16:00:00 7.9 5 Sudeste 13 Sudoeste 0 -- -- 63
2020-03-25 15:00:00 8.9 6 Sudoeste 12 Noroeste 0 -- -- 67
2020-03-25 14:00:00 6.8 7 Este 17 Este 0 -- -- 70
2020-03-25 13:00:00 5.9 9 Este 18 Este 0 -- -- 73
2020-03-25 12:00:00 5.1 9 Este 20 Nordeste 0 -- -- 78
2020-03-25 11:00:00 3.9 13 Nordeste 22 Este 0 -- -- 81
2020-03-25 10:00:00 3.7 14 Este 21 Este 0 -- -- 82
2020-03-25 09:00:00 3.8 8 Nordeste 17 Nordeste 0 -- -- 79
2020-03-25 08:00:00 3.6 7 Nordeste 22 Norte 0 -- -- 90
2020-03-25 07:00:00 2.9 8 Nordeste 20 Nordeste 0.2 -- -- 92
2020-03-25 06:00:00 3.5 9 Nordeste 22 Nordeste 1 -- -- 90
2020-03-25 05:00:00 -- -- -- -- -- 0 -- -- --
2020-03-25 04:00:00 4.8 17 Nordeste 24 Nordeste 0 -- -- 86
2020-03-25 03:00:00 5.1 10 Nordeste 18 Nordeste 0 -- -- 87
2020-03-25 02:00:00 5.4 8 Nordeste 14 Nordeste 0 -- -- 90
2020-03-25 01:00:00 5.5 8 Nordeste 16 Este 0 -- -- 95
2020-03-25 00:00:00 5.2 10 Nordeste 20 Este 0.2 -- -- 96
2020-03-24 23:00:00 5.5 7 Este 27 Sudeste 0.8 -- -- 96
2020-03-24 22:00:00 6.6 6 Este 17 Sudeste 0.8 -- -- 95
2020-03-24 21:00:00 7.4 6 Nordeste 14 Nordeste 0.4 -- -- 91
2020-03-24 20:00:00 7.8 6 Nordeste 12 Este 0.2 -- -- 88
2020-03-24 19:00:00 8.3 3 Nordeste 18 Nordeste 0.4 -- -- 88
2020-03-24 18:00:00 9.8 9 Sudeste 20 Sudoeste 0 -- -- 82
2020-03-24 17:00:00 11.3 12 Sudoeste 21 Sudoeste 0 -- -- 73
2020-03-24 16:00:00 12.2 8 Sudoeste 15 Sur 0 -- -- 67
2020-03-24 15:00:00 12.4 8 Sudoeste 22 Sudoeste 0 -- -- 68
2020-03-24 14:00:00 12.9 16 Sudoeste 23 Sudoeste 0 -- -- 66
2020-03-24 13:00:00 13.8 9 Sur 22 Sudoeste 0 -- -- 58
2020-03-24 12:00:00 13 4 Sudoeste 16 Sudeste 0 -- -- 69
2020-03-24 11:00:00 12.1 9 Sur 18 Sudeste 0 -- -- 68
2020-03-24 10:00:00 12.5 7 Sudeste 24 Este 0 -- -- 68
2020-03-24 09:00:00 10.5 16 Este 23 Este 0 -- -- 70
2020-03-24 08:00:00 8.7 9 Nordeste 25 Este 0 -- -- 82
2020-03-24 07:00:00 8.3 19 Este 30 Este 0 -- -- 80
2020-03-24 06:00:00 8.6 9 Nordeste 30 Este 0 -- -- 82
2020-03-24 05:00:00 8.6 14 Nordeste 31 Nordeste 0 -- -- 83
2020-03-24 04:00:00 8.5 9 Nordeste 14 Nordeste 0 -- -- 85
2020-03-24 03:00:00 8.7 9 Nordeste 15 Nordeste 0 -- -- 83
2020-03-24 02:00:00 8.3 3 Nordeste 12 Nordeste 0 -- -- 87
2020-03-24 01:00:00 9.3 5 Nordeste 22 Este 0 -- -- 81
2020-03-24 00:00:00 8.7 9 Nordeste 19 Este 0 -- -- 82
2020-03-23 23:00:00 8.5 8 Nordeste 15 Nordeste 0 -- -- 84
2020-03-23 22:00:00 9.5 6 Este 24 Este 0 -- -- 83
2020-03-23 21:00:00 10.9 11 Nordeste 32 Este 0 -- -- 79
2020-03-23 20:00:00 11.3 15 Nordeste 31 Nordeste 0 -- -- 78
2020-03-23 19:00:00 11.7 11 Nordeste 26 Este 0 -- -- 78
2020-03-23 18:00:00 13 15 Este 36 Este 0 -- -- 70
2020-03-23 17:00:00 14 21 Este 36 Nordeste 0 -- -- 68
2020-03-23 16:00:00 14.2 18 Este 37 Este 0 -- -- 65
2020-03-23 15:00:00 14.3 17 Este 34 Este 0 -- -- 66
2020-03-23 14:00:00 14 20 Este 33 Nordeste 0 -- -- 74
2020-03-23 13:00:00 12.1 18 Este 36 Este 0 -- -- 78
2020-03-23 12:00:00 13.3 23 Este 40 Este 0 -- -- 71
2020-03-23 11:00:00 13 21 Este 32 Este 0 -- -- 70
2020-03-23 10:00:00 12.2 17 Este 30 Este 0 -- -- 72
2020-03-23 09:00:00 11 14 Este 27 Este 0 -- -- 79
2020-03-23 08:00:00 9.7 12 Nordeste 23 Este 0 -- -- 80
2020-03-23 07:00:00 8.9 9 Nordeste 16 Nordeste 0 -- -- 82
2020-03-23 06:00:00 9.2 6 Nordeste 15 Nordeste 0 -- -- 84
2020-03-23 05:00:00 9.3 8 Norte 13 Nordeste 0 -- -- 86
2020-03-23 04:00:00 8.8 10 Nordeste 14 Nordeste 0 -- -- 89
2020-03-23 03:00:00 6.9 6 Nordeste 11 Este 0 -- -- 96
2020-03-23 02:00:00 5.8 7 Nordeste 10 Este 0 -- -- 94
2020-03-23 01:00:00 7.5 6 Nordeste 15 Este 0 -- -- 87
2020-03-23 00:00:00 9.7 6 Nordeste 18 Nordeste 0 -- -- 85
2020-03-22 23:00:00 10.2 12 Nordeste 24 Este 0 -- -- 83
2020-03-22 22:00:00 10.4 13 Nordeste 26 Nordeste 0 -- -- 83
2020-03-22 21:00:00 11.2 12 Este 21 Este 0 -- -- 79
2020-03-22 20:00:00 11.1 4 Nordeste 14 Sur 0 -- -- 79
2020-03-22 19:00:00 12 8 Sur 20 Sur 0 -- -- 74
2020-03-22 18:00:00 13.7 10 Sur 21 Sudoeste 0 -- -- 62
2020-03-22 17:00:00 14.4 14 Sur 31 Sur 0 -- -- 63
2020-03-22 16:00:00 16 13 Sur 32 Sudoeste 0 -- -- 54
2020-03-22 15:00:00 15.9 12 Este 23 Este 0 -- -- 52
2020-03-22 14:00:00 13.3 3 Noroeste 17 Sudeste 0 -- -- 67
2020-03-22 13:00:00 13.1 10 Este 19 Sur 0 -- -- 68
2020-03-22 12:00:00 13.5 9 Este 22 Este 0 -- -- 64
2020-03-22 11:00:00 14 7 Este 22 Este 0 -- -- 66
2020-03-22 10:00:00 12.2 10 Este 18 Nordeste 0 -- -- 66
2020-03-22 09:00:00 10.5 4 Este 13 Este 0 -- -- 81
2020-03-22 08:00:00 8 11 Nordeste 15 Nordeste 0 -- -- 89
2020-03-22 07:00:00 7.2 5 Norte 8 Nordeste 0 -- -- 90
2020-03-22 06:00:00 7.5 5 Nordeste 9 Nordeste 0 -- -- 89
2020-03-22 05:00:00 8.3 8 Nordeste 12 Nordeste 0 -- -- 85
2020-03-22 04:00:00 8.4 7 Nordeste 11 Nordeste 0 -- -- 84
2020-03-22 03:00:00 8.4 7 Nordeste 13 Este 0 -- -- 85
2020-03-22 02:00:00 8.8 7 Nordeste 13 Nordeste 0 -- -- 84
2020-03-22 01:00:00 8.1 5 Nordeste 9 Este 0 -- -- 90
2020-03-22 00:00:00 6.7 5 Nordeste 12 Nordeste 0 -- -- 93
2020-03-21 23:00:00 6.4 7 Nordeste 12 Este 0 -- -- 90
2020-03-21 22:00:00 7.2 9 Este 11 Este 0 -- -- 88
2020-03-21 21:00:00 9.7 8 Este 15 Sudeste 0 -- -- 79
2020-03-21 20:00:00 10.9 8 Sur 16 Sur 0 -- -- 72
2020-03-21 19:00:00 13.1 6 Sur 18 Sudeste 0 -- -- 58
2020-03-21 18:00:00 15.3 8 Sudoeste 21 Sudoeste 0 -- -- 46
2020-03-21 17:00:00 15.9 10 Sur 25 Este 0 -- -- 47
2020-03-21 16:00:00 16.1 9 Sudeste 28 Sur 0 -- -- 50
2020-03-21 15:00:00 15.8 12 Sur 23 Sur 0 -- -- 47
2020-03-21 14:00:00 15.4 7 Sur 22 Este 0 -- -- 52
2020-03-21 13:00:00 14.7 10 Sudeste 21 Este 0 -- -- 53
2020-03-21 12:00:00 14.3 11 Sudeste 19 Este 0 -- -- 53
2020-03-21 11:00:00 13.3 4 Nordeste 13 Este 0 -- -- 57
2020-03-21 10:00:00 12.3 7 Este 14 Este 0 -- -- 64
2020-03-21 09:00:00 8.3 11 Este 14 Este 0 -- -- 83
2020-03-21 08:00:00 4.4 9 Nordeste 14 Nordeste 0 -- -- 92
2020-03-21 07:00:00 3.8 11 Nordeste 15 Nordeste 0 -- -- 92
2020-03-21 06:00:00 2.9 12 Nordeste 14 Nordeste 0 -- -- 93
2020-03-21 05:00:00 3.5 11 Nordeste 15 Nordeste 0 -- -- 94
2020-03-21 04:00:00 3.9 10 Nordeste 14 Nordeste 0 -- -- 91
2020-03-21 03:00:00 3.5 9 Nordeste 11 Nordeste 0 -- -- 94
2020-03-21 02:00:00 3.9 6 Nordeste 10 Este 0 -- -- 91
2020-03-21 01:00:00 6.8 5 Nordeste 12 Nordeste 0 -- -- 83
2020-03-21 00:00:00 5.4 6 Nordeste 9 Norte 0 -- -- 92
2020-03-20 23:00:00 5.4 8 Nordeste 10 Este 0 -- -- 93
2020-03-20 22:00:00 6.3 7 Este 13 Este 0 -- -- 89
2020-03-20 21:00:00 9.1 6 Sudeste 14 Sudeste 0 -- -- 82
2020-03-20 20:00:00 10.1 7 Sudeste 16 Este 0 -- -- 77
2020-03-20 19:00:00 12.2 9 Sur 20 Sudoeste 0 -- -- 68
2020-03-20 18:00:00 14.2 13 Sur 26 Sur 0 -- -- 60
2020-03-20 17:00:00 15.3 10 Sur 24 Sur 0 -- -- 53
2020-03-20 16:00:00 15.6 9 Sudeste 24 Este 0 -- -- 47
2020-03-20 15:00:00 15.4 10 Sur 26 Este 0 -- -- 45
2020-03-20 14:00:00 15.8 7 Sudeste 24 Sudeste 0 -- -- 52
2020-03-20 13:00:00 14.8 10 Sudeste 27 Sudeste 0 -- -- 55
2020-03-20 12:00:00 13.8 8 Sudeste 22 Sudeste 0 -- -- 53
2020-03-20 11:00:00 13.3 12 Este 20 Nordeste 0 -- -- 59
2020-03-20 10:00:00 11.6 11 Sudeste 21 Este 0 -- -- 63
2020-03-20 09:00:00 9.9 6 Este 10 Este 0 -- -- 75
2020-03-20 08:00:00 4.8 6 Nordeste 12 Este 0 -- -- 96
2020-03-20 07:00:00 2.1 9 Nordeste 12 Nordeste 0 -- -- 96
2020-03-20 06:00:00 3.3 4 Nordeste 9 Este 0 -- -- 93
2020-03-20 05:00:00 2.7 5 Nordeste 10 Nordeste 0 -- -- 96
2020-03-20 04:00:00 3.8 5 Nordeste 10 Este 0 -- -- 96
2020-03-20 03:00:00 4.6 9 Este 15 Este 0 -- -- 94
2020-03-20 02:00:00 5.6 12 Nordeste 15 Nordeste 0 -- -- 91
2020-03-20 01:00:00 5.9 9 Nordeste 13 Este 0 -- -- 89
2020-03-20 00:00:00 7.3 4 Este 13 Este 0 -- -- 88
2020-03-19 23:00:00 7.9 7 Este 13 Sudeste 0 -- -- 87
2020-03-19 22:00:00 7.4 6 Nordeste 10 Norte 0 -- -- 89
2020-03-19 21:00:00 7.1 6 Nordeste 9 Este 0 -- -- 91
2020-03-19 20:00:00 9.8 3 Nordeste 15 Sudeste 0 -- -- 85
2020-03-19 19:00:00 11.9 9 Sudeste 17 Sudeste 0 -- -- 77
2020-03-19 18:00:00 14.5 8 Sur 19 Sur 0 -- -- 71
2020-03-19 17:00:00 15.5 12 Sur 21 Sur 0 -- -- 65
2020-03-19 16:00:00 17.9 7 Sudeste 25 Sudeste 0 -- -- 51
2020-03-19 15:00:00 17.7 10 Sudeste 32 Este 0 -- -- 40
2020-03-19 14:00:00 17.5 9 Sudeste 26 Este 0 -- -- 50
2020-03-19 13:00:00 17.2 9 Sur 23 Este 0 -- -- 58
2020-03-19 12:00:00 16.6 9 Sur 21 Este 0 -- -- 61
2020-03-19 11:00:00 15.9 9 Este 21 Este 0 -- -- 60
2020-03-19 10:00:00 14.4 5 Sudeste 14 Este 0 -- -- 68
2020-03-19 09:00:00 9.7 12 Este 15 Este 0 -- -- 94
2020-03-19 08:00:00 7 10 Nordeste 19 Nordeste 0 -- -- 97
2020-03-19 07:00:00 5.8 12 Nordeste 16 Nordeste 0 -- -- 99
2020-03-19 06:00:00 5.5 10 Nordeste 13 Nordeste 0 -- -- 97
2020-03-19 05:00:00 5.8 9 Nordeste 12 Nordeste 0 -- -- 100
2020-03-19 04:00:00 4.9 6 Nordeste 10 Nordeste 0 -- -- 98
2020-03-19 03:00:00 4.8 5 Nordeste 6 Nordeste 0 -- -- 98
2020-03-19 02:00:00 5.2 5 Nordeste 8 Nordeste 0 -- -- 97
2020-03-19 01:00:00 5.8 4 Nordeste 9 Nordeste 0 -- -- 96
2020-03-19 00:00:00 6.7 6 Nordeste 9 Nordeste 0 -- -- 96
2020-03-18 23:00:00 7 4 Nordeste 8 Nordeste 0 -- -- 95
2020-03-18 22:00:00 8.2 5 Norte 6 Norte 0 -- -- 93
2020-03-18 21:00:00 9.2 5 Norte 6 Norte 0 -- -- 93
2020-03-18 20:00:00 9.4 4 Nordeste 7 Nordeste 0 -- -- 92
2020-03-18 19:00:00 12 4 Nordeste 5 Norte 0 -- -- 86
2020-03-18 18:00:00 13.6 3 Sudoeste 6 Sudoeste 0 -- -- 78
2020-03-18 17:00:00 14.2 4 Sudoeste 13 Sudoeste 0 -- -- 77
2020-03-18 16:00:00 14.6 9 Sudoeste 14 Sur 0 -- -- 76
2020-03-18 15:00:00 14.4 9 Sudoeste 14 Sudoeste 0 -- -- 77
2020-03-18 14:00:00 14.3 9 Sudoeste 15 Sudoeste 0 -- -- 79
2020-03-18 13:00:00 13.9 8 Sudoeste 13 Sur 0 -- -- 78
2020-03-18 12:00:00 13.8 8 Sudoeste 13 Sudoeste 0 -- -- 79
2020-03-18 11:00:00 12.4 5 Sudoeste 9 Sudoeste 0 -- -- 85
2020-03-18 10:00:00 11.4 4 Sudoeste 7 Nordeste 0 -- -- 91
2020-03-18 09:00:00 9.4 4 Nordeste 12 Nordeste 0 -- -- 95
2020-03-18 08:00:00 7.8 8 Nordeste 13 Nordeste 0 -- -- 96
2020-03-18 07:00:00 8.2 9 Nordeste 15 Nordeste 0 -- -- 96
2020-03-18 06:00:00 7.8 7 Nordeste 15 Nordeste 0 -- -- 96
2020-03-18 05:00:00 7.8 9 Nordeste 13 Este 0 -- -- 96
2020-03-18 04:00:00 7.4 6 Nordeste 12 Nordeste 0 -- -- 96
2020-03-18 03:00:00 7.5 4 Nordeste 9 Este 0 -- -- 96
2020-03-18 02:00:00 7.1 7 Nordeste 8 Nordeste 0 -- -- 96
2020-03-18 01:00:00 8.1 4 Nordeste 7 Nordeste 0 -- -- 94
2020-03-18 00:00:00 9.3 4 Nordeste 8 Norte 0 -- -- 93
2020-03-17 23:00:00 9.2 4 Nordeste 8 Este 0 -- -- 95
2020-03-17 22:00:00 8.7 5 Nordeste 7 Este 0 -- -- 94
2020-03-17 21:00:00 9.4 4 Nordeste 6 Norte 0 -- -- 93
2020-03-17 20:00:00 10 4 Nordeste 6 Norte 0 -- -- 90
2020-03-17 19:00:00 12.8 0 Calma 11 Sudeste 0 -- -- 81
2020-03-17 18:00:00 14.3 5 Sudeste 12 Sur 0 -- -- 71
2020-03-17 17:00:00 15.5 6 Sudeste 15 Este 0 -- -- 69
2020-03-17 16:00:00 14.5 9 Este 20 Este 0 -- -- 66
2020-03-17 15:00:00 14.8 8 Este 21 Este 0 -- -- 70
2020-03-17 14:00:00 14.2 12 Nordeste 23 Este 0 -- -- 66
2020-03-17 13:00:00 13.5 5 Este 26 Este 0 -- -- 73
2020-03-17 12:00:00 13.1 13 Este 28 Nordeste 0 -- -- 67
2020-03-17 11:00:00 13.2 20 Este 33 Este 0 -- -- 68
2020-03-17 10:00:00 12 14 Nordeste 38 Este 0.2 -- -- 76
2020-03-17 09:00:00 11.5 19 Este 39 Este 0.6 -- -- 77
2020-03-17 08:00:00 11.1 13 Nordeste 39 Este 0.4 -- -- 78
2020-03-17 07:00:00 12.5 22 Nordeste 52 Este 0 -- -- 66
2020-03-17 06:00:00 12.8 31 Este 49 Este 0 -- -- 62
2020-03-17 05:00:00 12.2 24 Este 49 Nordeste 0 -- -- 65
2020-03-17 04:00:00 12 28 Este 51 Este 0 -- -- 66
2020-03-17 03:00:00 11.6 26 Este 51 Nordeste 0 -- -- 71
2020-03-17 02:00:00 11.4 30 Este 50 Este 0 -- -- 78
2020-03-17 01:00:00 11.6 31 Este 55 Este 0 -- -- 77
2020-03-17 00:00:00 11.3 26 Este 52 Este 0 -- -- 78
2020-03-16 23:00:00 11.4 30 Este 54 Este 0 -- -- 78
2020-03-16 22:00:00 11.5 28 Este 47 Nordeste 0 -- -- 77
2020-03-16 21:00:00 10.5 17 Nordeste 44 Este 0 -- -- 87
2020-03-16 20:00:00 10.4 21 Nordeste 47 Este 0.2 -- -- 88
2020-03-16 19:00:00 10.9 23 Nordeste 59 Nordeste 0 -- -- 82
2020-03-16 18:00:00 11.4 19 Nordeste 50 Este 0 -- -- 80
2020-03-16 17:00:00 11.3 25 Este 51 Este 0 -- -- 81
2020-03-16 16:00:00 10 21 Nordeste 44 Este 1.8 -- -- 89
2020-03-16 15:00:00 10.7 19 Nordeste 46 Este 0 -- -- 81
2020-03-16 14:00:00 10.8 23 Nordeste 47 Este 0 -- -- 82
2020-03-16 13:00:00 9.5 21 Nordeste 39 Este 0.6 -- -- 86
2020-03-16 12:00:00 8.7 18 Nordeste 44 Este 2.6 -- -- 92
2020-03-16 11:00:00 8.7 19 Este 38 Este 1.4 -- -- 89
2020-03-16 10:00:00 9 23 Este 41 Este 1.4 -- -- 89
2020-03-16 09:00:00 9 22 Este 41 Este 2 -- -- 91
2020-03-16 08:00:00 9.2 15 Este 30 Este 1 -- -- 92
2020-03-16 07:00:00 9.3 11 Nordeste 37 Este 2.8 -- -- 95
2020-03-16 06:00:00 9.5 17 Nordeste 32 Este 0.6 -- -- 93
2020-03-16 05:00:00 9.5 19 Este 31 Nordeste 0.2 -- -- 93
2020-03-16 04:00:00 9.3 12 Nordeste 24 Este 1 -- -- 94
2020-03-16 03:00:00 9.3 16 Nordeste 31 Este 1 -- -- 92
2020-03-16 02:00:00 9.3 19 Nordeste 30 Este 1.2 -- -- 92
2020-03-16 01:00:00 8.9 17 Nordeste 32 Nordeste 4.4 -- -- 96
2020-03-16 00:00:00 9.1 24 Este 38 Nordeste 3.4 -- -- 96
2020-03-15 23:00:00 10.1 20 Nordeste 33 Este 0 -- -- 88
2020-03-15 22:00:00 10.1 21 Este 33 Este 0.4 -- -- 86
2020-03-15 21:00:00 10.6 25 Este 39 Este 0 -- -- 79
2020-03-15 20:00:00 10.9 21 Este 32 Este 0 -- -- 80
2020-03-15 19:00:00 11.7 12 Nordeste 21 Nordeste 0 -- -- 79
2020-03-15 18:00:00 13.1 6 Nordeste 26 Este 0 -- -- 76
2020-03-15 17:00:00 14.5 11 Este 27 Este 0 -- -- 72
2020-03-15 16:00:00 15 9 Este 34 Sudeste 0 -- -- 69
2020-03-15 15:00:00 16.9 10 Sudeste 28 Este 0 -- -- 61
2020-03-15 14:00:00 17.4 10 Sur 27 Sudeste 0 -- -- 57
2020-03-15 13:00:00 17.4 11 Este 21 Sudeste 0 -- -- 58
2020-03-15 12:00:00 16.6 10 Este 20 Este 0 -- -- 61
2020-03-15 11:00:00 15.8 8 Este 13 Este 0 -- -- 65
2020-03-15 10:00:00 12.7 10 Este 18 Este 0 -- -- 83
2020-03-15 09:00:00 9.4 10 Nordeste 19 Nordeste 0 -- -- 92
2020-03-15 08:00:00 6.1 13 Nordeste 18 Nordeste 0 -- -- 99
2020-03-15 07:00:00 6 11 Nordeste 17 Nordeste 0 -- -- 98
2020-03-15 06:00:00 5.8 13 Nordeste 17 Nordeste 0 -- -- 96
2020-03-15 05:00:00 5.2 12 Nordeste 16 Nordeste 0 -- -- 98
2020-03-15 04:00:00 5.5 12 Nordeste 17 Nordeste 0 -- -- 97
2020-03-15 03:00:00 6.3 9 Nordeste 17 Nordeste 0 -- -- 96
2020-03-15 02:00:00 6.6 9 Nordeste 15 Nordeste 0 -- -- 97
2020-03-15 01:00:00 6.4 10 Nordeste 17 Este 0 -- -- 95
2020-03-15 00:00:00 6.8 9 Nordeste 14 Este 0 -- -- 95
2020-03-14 23:00:00 6.1 6 Nordeste 12 Nordeste 0 -- -- 95
2020-03-14 22:00:00 7.1 9 Nordeste 12 Nordeste 0 -- -- 90
2020-03-14 21:00:00 7.7 9 Nordeste 11 Nordeste 0 -- -- 93
2020-03-14 20:00:00 8.3 7 Este 10 Este 0 -- -- 87
2020-03-14 19:00:00 12.2 5 Sudeste 14 Sudoeste 0 -- -- 74
2020-03-14 18:00:00 14.4 9 Sudoeste 13 Sudoeste 0 -- -- 69
2020-03-14 17:00:00 14.8 9 Sudoeste 18 Sur 0 -- -- 68
2020-03-14 16:00:00 15.4 10 Sudoeste 18 Sudoeste 0 -- -- 67
2020-03-14 15:00:00 14.8 8 Sudoeste 16 Sudoeste 0 -- -- 71
2020-03-14 14:00:00 12.4 8 Sudoeste 15 Sudoeste 0 -- -- 77
2020-03-14 13:00:00 10.7 8 Sudoeste 13 Sudoeste 0 -- -- 82
2020-03-14 12:00:00 9.3 4 Sudoeste 13 Sur 0 -- -- 87
2020-03-14 11:00:00 8.5 8 Sudoeste 13 Sur 0 -- -- 90
2020-03-14 10:00:00 8 5 Sudoeste 11 Sudoeste 0 -- -- 93
2020-03-14 09:00:00 7 6 Sudoeste 9 Sudoeste 0 -- -- 96
2020-03-14 08:00:00 6.5 0 Calma 9 Sudoeste 0 -- -- 99
2020-03-14 07:00:00 7.2 6 Sudoeste 10 Sudoeste 0 -- -- 99
2020-03-14 06:00:00 7.3 6 Sudoeste 10 Sudoeste 0 -- -- 98
2020-03-14 05:00:00 8.1 4 Sudoeste 9 Oeste 0 -- -- 97
2020-03-14 04:00:00 7.6 2 Sudoeste 10 Este 0 -- -- 99
2020-03-14 03:00:00 6.9 5 Nordeste 12 Este 0 -- -- 96
2020-03-14 02:00:00 7.3 4 Nordeste 8 Nordeste 0 -- -- 96
2020-03-14 01:00:00 7.4 3 Nordeste 8 Este 0 -- -- 95
2020-03-14 00:00:00 8.4 5 Norte 9 Norte 0 -- -- 91
2020-03-13 23:00:00 8.4 4 Nordeste 11 Este 0 -- -- 93
2020-03-13 22:00:00 9 9 Este 12 Este 0 -- -- 90
2020-03-13 21:00:00 10.9 5 Nordeste 9 Nordeste 0 -- -- 86
2020-03-13 20:00:00 12.4 3 Nordeste 9 Noroeste 0 -- -- 79
2020-03-13 19:00:00 13.6 3 Oeste 9 Sudoeste 0 -- -- 75
2020-03-13 18:00:00 14.2 5 Sudoeste 10 Sudoeste 0 -- -- 76
2020-03-13 17:00:00 14.5 2 Sur 6 Sudoeste 0 -- -- 75
2020-03-13 16:00:00 13.3 5 Sudoeste 9 Sur 0 -- -- 79
2020-03-13 15:00:00 12.9 4 Sudoeste 9 Sudoeste 0 -- -- 81
2020-03-13 14:00:00 12.4 6 Sudoeste 11 Sudoeste 0 -- -- 81
2020-03-13 13:00:00 12.3 4 Sur 14 Este 0 -- -- 82
2020-03-13 12:00:00 12.2 8 Este 16 Sur 0 -- -- 83
2020-03-13 11:00:00 13 3 Sudeste 13 Sudeste 0 -- -- 79
2020-03-13 10:00:00 11.3 3 Este 10 Este 0 -- -- 89
2020-03-13 09:00:00 10.1 2 Noroeste 8 Este 0 -- -- 94
2020-03-13 08:00:00 9.2 3 Norte 9 Sudeste 0 -- -- 95
2020-03-13 07:00:00 8.6 2 Este 12 Este 0 -- -- 95
2020-03-13 06:00:00 8 3 Este 6 Este 0 -- -- 92
2020-03-13 05:00:00 9.4 0 Calma 12 Sudeste 0 -- -- 87
2020-03-13 04:00:00 10.2 4 Nordeste 15 Este 0 -- -- 85
2020-03-13 03:00:00 12.1 10 Nordeste 14 Este 0 -- -- 81
2020-03-13 02:00:00 13.3 5 Sur 14 Este 0 -- -- 74
2020-03-13 01:00:00 13.9 10 Sudoeste 26 Este 0 -- -- 75
2020-03-13 00:00:00 14.7 9 Este 20 Nordeste 0 -- -- 77
2020-03-12 23:00:00 15.5 5 Norte 17 Oeste 0 -- -- 71
2020-03-12 22:00:00 15.5 5 Oeste 10 Nordeste 0 -- -- 64
2020-03-12 21:00:00 15.6 5 Norte 12 Nordeste 0 -- -- 62
2020-03-12 20:00:00 14.5 6 Nordeste 10 Este 0 -- -- 65
2020-03-12 19:00:00 17.9 5 Norte 7 Nordeste 0 -- -- 57
2020-03-12 18:00:00 21.9 2 Nordeste 4 Sudoeste 0 -- -- 49
2020-03-12 17:00:00 23.6 3 Sudoeste 10 Sudoeste 0 -- -- 40
2020-03-12 16:00:00 23.7 6 Sudoeste 10 Sudoeste 0 -- -- 43
2020-03-12 15:00:00 24 6 Sudoeste 15 Sudoeste 0 -- -- 40
2020-03-12 14:00:00 23.9 10 Sudoeste 15 Sudoeste 0 -- -- 43
2020-03-12 13:00:00 22.7 9 Sudoeste 15 Sudoeste 0 -- -- 54
2020-03-12 12:00:00 22.2 8 Sudoeste 14 Este 0 -- -- 56
2020-03-12 11:00:00 19.3 12 Este 19 Este 0 -- -- 56
2020-03-12 10:00:00 16 14 Este 21 Este 0 -- -- 64
2020-03-12 09:00:00 11.6 14 Nordeste 20 Nordeste 0 -- -- 80
2020-03-12 08:00:00 10.2 12 Nordeste 20 Nordeste 0 -- -- 80
2020-03-12 07:00:00 8.5 12 Nordeste 15 Nordeste 0 -- -- 84
2020-03-12 06:00:00 9.5 10 Nordeste 15 Nordeste 0 -- -- 83
2020-03-12 05:00:00 8 10 Nordeste 16 Nordeste 0 -- -- 86
2020-03-12 04:00:00 9.6 10 Nordeste 14 Nordeste 0 -- -- 83
2020-03-12 03:00:00 10.7 10 Nordeste 14 Nordeste 0 -- -- 79
2020-03-12 02:00:00 11.3 10 Nordeste 14 Este 0 -- -- 78
2020-03-12 01:00:00 11.9 9 Nordeste 15 Nordeste 0 -- -- 75
2020-03-12 00:00:00 11.3 8 Nordeste 12 Nordeste 0 -- -- 79
2020-03-11 23:00:00 11.3 8 Nordeste 15 Nordeste 0 -- -- 79
2020-03-11 22:00:00 11.5 8 Nordeste 15 Este 0 -- -- 78
2020-03-11 21:00:00 11.3 7 Nordeste 14 Este 0 -- -- 78
2020-03-11 20:00:00 11.1 10 Nordeste 13 Este 0 -- -- 79
2020-03-11 19:00:00 14.6 2 Nordeste 10 Sudoeste 0 -- -- 67
2020-03-11 18:00:00 18.5 9 Sudoeste 13 Sudoeste 0 -- -- 55
2020-03-11 17:00:00 19.9 7 Sudoeste 14 Sudoeste 0 -- -- 51
2020-03-11 16:00:00 20.1 7 Sudoeste 15 Sur 0 -- -- 52
2020-03-11 15:00:00 19 9 Sudoeste 18 Sur 0 -- -- 56
2020-03-11 14:00:00 18.6 9 Sudoeste 18 Sur 0 -- -- 62
2020-03-11 13:00:00 17.5 9 Sudoeste 20 Sur 0 -- -- 61
2020-03-11 12:00:00 16.4 12 Sudoeste 19 Sudoeste 0 -- -- 63
2020-03-11 11:00:00 15.3 7 Sudoeste 13 Sudoeste 0 -- -- 67
2020-03-11 10:00:00 13.5 6 Sur 13 Este 0 -- -- 73
2020-03-11 09:00:00 9.7 10 Este 15 Este 0 -- -- 85
2020-03-11 08:00:00 5 10 Nordeste 15 Nordeste 0 -- -- 91
2020-03-11 07:00:00 5.2 10 Nordeste 15 Nordeste 0 -- -- 93
2020-03-11 06:00:00 3.6 5 Nordeste 11 Este 0 -- -- 96
2020-03-11 05:00:00 4.2 6 Nordeste 13 Nordeste 0 -- -- 93
2020-03-11 04:00:00 5.6 8 Nordeste 15 Nordeste 0 -- -- 92
2020-03-11 03:00:00 6 11 Nordeste 15 Este 0 -- -- 91
2020-03-11 02:00:00 7.5 10 Nordeste 15 Nordeste 0 -- -- 86
2020-03-11 01:00:00 6.9 7 Nordeste 12 Nordeste 0 -- -- 90
2020-03-11 00:00:00 6.8 8 Nordeste 12 Este 0 -- -- 90